createdAt,value
2019-01-21T00:01:42.614Z,33.70
2019-01-21T00:04:33.457Z,42.35
2019-01-21T00:07:34.795Z,41.37
2019-01-21T00:10:27.562Z,35.00
2019-01-21T00:13:16.760Z,31.33
2019-01-21T00:16:05.987Z,38.25
2019-01-21T00:18:55.227Z,34.55
2019-01-21T00:21:44.801Z,38.88
2019-01-21T00:24:34.748Z,39.80
2019-01-21T00:27:25.511Z,37.35
2019-01-21T00:30:15.917Z,43.48
2019-01-21T00:33:05.982Z,35.38
2019-01-21T00:35:55.833Z,48.83
2019-01-21T00:38:45.854Z,33.73
2019-01-21T00:41:35.954Z,42.25
2019-01-21T00:44:26.051Z,39.27
2019-01-21T00:47:16.328Z,36.13
2019-01-21T00:50:06.820Z,49.42
2019-01-21T00:52:56.642Z,35.17
2019-01-21T00:55:47.000Z,39.03
2019-01-21T00:58:36.810Z,34.67
2019-01-21T01:01:26.828Z,38.83
2019-01-21T01:04:16.938Z,43.65
2019-01-21T01:07:06.816Z,41.30
2019-01-21T01:09:57.131Z,37.15
2019-01-21T01:12:47.194Z,41.70
2019-01-21T01:15:37.400Z,35.13
2019-01-21T01:18:28.000Z,31.07
2019-01-21T01:21:18.267Z,43.25
2019-01-21T01:24:08.348Z,37.60
2019-01-21T01:26:58.330Z,44.10
2019-01-21T01:29:48.739Z,52.03
2019-01-21T01:32:38.517Z,41.63
2019-01-21T01:35:29.050Z,40.03
2019-01-21T01:38:18.782Z,49.35
2019-01-21T01:41:08.593Z,39.67
2019-01-21T01:43:58.548Z,36.25
2019-01-21T01:46:48.952Z,37.28
2019-01-21T01:49:39.158Z,44.20
2019-01-21T01:52:29.321Z,37.83
2019-01-21T01:55:23.819Z,31.15
2019-01-21T01:58:13.971Z,47.25
2019-01-21T02:01:03.998Z,47.60
2019-01-21T02:03:54.681Z,40.92
2019-01-21T02:06:44.708Z,43.70
2019-01-21T02:09:34.600Z,39.35
2019-01-21T02:12:24.881Z,37.67
2019-01-21T02:15:14.972Z,48.10
2019-01-21T02:18:05.019Z,46.60
2019-01-21T02:20:58.153Z,41.37
2019-01-21T02:23:52.567Z,42.60
2019-01-21T02:26:53.898Z,42.53
2019-01-21T02:30:13.517Z,49.10
2019-01-21T02:33:44.306Z,52.25
2019-01-21T02:36:48.824Z,40.20
2019-01-21T02:40:10.460Z,45.78
2019-01-21T02:43:59.326Z,42.58
2019-01-21T02:47:09.741Z,41.42
2019-01-21T02:50:52.611Z,43.87
2019-01-21T02:54:23.861Z,43.75
2019-01-21T02:57:41.882Z,47.73
2019-01-21T03:01:10.469Z,47.98
2019-01-21T03:04:17.891Z,45.75
2019-01-21T03:07:28.391Z,56.83
2019-01-21T03:10:38.848Z,49.55
2019-01-21T03:14:00.242Z,35.00
2019-01-21T03:17:25.158Z,41.05
2019-01-21T03:20:43.794Z,61.92
2019-01-21T03:24:09.171Z,54.08
2019-01-21T03:27:31.344Z,54.98
2019-01-21T03:30:47.988Z,41.40
2019-01-21T03:34:30.780Z,51.83
2019-01-21T03:37:45.361Z,54.33
2019-01-21T03:41:08.258Z,49.10
2019-01-21T03:44:45.044Z,56.58
2019-01-21T03:48:02.416Z,44.20
2019-01-21T03:51:33.545Z,55.85
2019-01-21T03:54:36.332Z,50.83
2019-01-21T03:58:34.615Z,59.63
2019-01-21T04:02:05.355Z,36.28
2019-01-21T04:05:41.259Z,58.05
2019-01-21T04:09:12.265Z,52.45
2019-01-21T04:12:40.249Z,53.02
2019-01-21T04:16:26.553Z,54.13
2019-01-21T04:19:44.843Z,57.90
2019-01-21T04:22:47.862Z,52.45
2019-01-21T04:26:10.852Z,51.30
2019-01-21T04:29:08.269Z,51.75
2019-01-21T04:32:17.181Z,55.48
2019-01-21T04:35:47.349Z,53.02
2019-01-21T04:39:08.845Z,64.00
2019-01-21T04:42:54.353Z,56.90
2019-01-21T04:46:39.941Z,46.30
2019-01-21T04:50:17.132Z,67.37
2019-01-21T04:53:43.988Z,56.65
2019-01-21T04:57:19.326Z,56.85
2019-01-21T05:00:48.837Z,60.50
2019-01-21T05:04:01.999Z,54.50
2019-01-21T05:07:46.939Z,65.78
2019-01-21T05:11:02.012Z,62.98
2019-01-21T05:14:32.445Z,58.13
2019-01-21T05:17:55.607Z,44.70
2019-01-21T05:21:21.122Z,55.65
2019-01-21T05:25:03.942Z,60.35
2019-01-21T05:28:49.529Z,54.18
2019-01-21T05:32:32.231Z,67.45
2019-01-21T05:36:30.335Z,60.55
2019-01-21T05:40:01.580Z,55.63
2019-01-21T05:43:17.753Z,55.35
2019-01-21T05:46:50.160Z,55.73
2019-01-21T05:50:29.409Z,50.15
2019-01-21T05:54:15.190Z,50.03
2019-01-21T05:58:13.271Z,59.83
2019-01-21T06:02:05.410Z,66.87
2019-01-21T06:05:30.313Z,53.33
2019-01-21T06:08:59.520Z,62.78
2019-01-21T06:12:16.686Z,65.60
2019-01-21T06:15:38.852Z,55.12
2019-01-21T06:18:57.343Z,58.48
2019-01-21T06:22:29.402Z,51.92
2019-01-21T06:25:36.482Z,58.58
2019-01-21T06:29:03.114Z,64.10
2019-01-21T06:32:07.165Z,50.73
2019-01-21T06:35:21.160Z,64.80
2019-01-21T06:38:45.480Z,56.40
2019-01-21T06:42:15.830Z,59.48
2019-01-21T06:45:43.276Z,62.05
2019-01-21T06:49:15.820Z,56.33
2019-01-21T06:53:08.531Z,43.73
2019-01-21T06:56:33.593Z,46.92
2019-01-21T06:59:59.929Z,52.45
2019-01-21T07:03:55.822Z,38.65
2019-01-21T07:07:26.006Z,62.70
2019-01-21T07:10:52.823Z,50.38
2019-01-21T07:14:13.139Z,53.08
2019-01-21T07:17:35.485Z,50.10
2019-01-21T07:21:06.742Z,52.40
2019-01-21T07:24:26.954Z,55.55
2019-01-21T07:27:46.283Z,50.00
2019-01-21T07:31:08.234Z,54.15
2019-01-21T07:34:48.099Z,52.65
2019-01-21T07:38:09.811Z,33.70
2019-01-21T07:41:16.258Z,48.35
2019-01-21T07:44:43.889Z,36.77
2019-01-21T07:48:18.465Z,47.43
2019-01-21T07:51:44.899Z,39.48
2019-01-21T07:55:13.956Z,43.42
2019-01-21T07:58:32.792Z,46.65
2019-01-21T08:01:52.072Z,45.15
2019-01-21T08:05:19.962Z,39.40
2019-01-21T08:08:36.386Z,46.73
2019-01-21T08:12:06.987Z,50.60
2019-01-21T08:15:11.527Z,54.73
2019-01-21T08:18:44.840Z,45.17
2019-01-21T08:22:23.859Z,48.00
2019-01-21T08:25:45.803Z,50.65
2019-01-21T08:28:59.541Z,48.50
2019-01-21T08:32:36.686Z,41.63
2019-01-21T08:35:57.932Z,48.25
2019-01-21T08:39:39.194Z,41.30
2019-01-21T08:43:15.794Z,58.87
2019-01-21T08:46:40.887Z,36.30
2019-01-21T08:49:59.242Z,41.77
2019-01-21T08:53:18.419Z,45.95
2019-01-21T08:57:04.532Z,41.08
2019-01-21T09:00:17.374Z,55.78
2019-01-21T09:03:29.910Z,44.98
2019-01-21T09:07:13.463Z,41.10
2019-01-21T09:10:14.642Z,45.67
2019-01-21T09:13:40.912Z,41.58
2019-01-21T09:17:03.391Z,32.33
2019-01-21T09:20:42.013Z,43.83
2019-01-21T09:24:41.321Z,45.58
2019-01-21T09:28:24.469Z,41.58
2019-01-21T09:31:37.070Z,36.35
2019-01-21T09:34:50.605Z,42.13
2019-01-21T09:38:14.370Z,48.05
2019-01-21T09:41:48.070Z,50.83
2019-01-21T09:44:52.277Z,40.20
2019-01-21T09:47:40.733Z,43.48
2019-01-21T09:50:32.137Z,53.20
2019-01-21T09:53:24.676Z,38.92
2019-01-21T09:56:15.948Z,47.23
2019-01-21T09:59:06.897Z,38.35
2019-01-21T10:01:59.518Z,44.18
2019-01-21T10:05:05.500Z,45.92
2019-01-21T10:08:05.385Z,41.68
2019-01-21T10:11:46.085Z,59.85
2019-01-21T10:15:05.622Z,40.30
2019-01-21T10:18:33.411Z,38.38
2019-01-21T10:21:37.372Z,43.60
2019-01-21T10:25:03.825Z,37.95
2019-01-21T10:28:30.704Z,53.60
2019-01-21T10:32:04.042Z,47.00
2019-01-21T10:35:15.809Z,43.28
2019-01-21T10:38:40.260Z,50.50
2019-01-21T10:41:56.070Z,49.98
2019-01-21T10:45:21.427Z,37.73
2019-01-21T10:48:42.177Z,38.65
2019-01-21T10:51:54.147Z,42.17
2019-01-21T10:55:30.847Z,40.92
2019-01-21T10:58:49.337Z,48.20
2019-01-21T11:02:14.178Z,46.35
2019-01-21T11:05:31.173Z,49.30
2019-01-21T11:09:12.612Z,40.78
2019-01-21T11:12:55.228Z,50.00
2019-01-21T11:16:16.993Z,41.35
2019-01-21T11:19:29.720Z,43.83
2019-01-21T11:22:42.773Z,48.00
2019-01-21T11:26:00.249Z,44.00
2019-01-21T11:29:04.940Z,53.45
2019-01-21T11:32:30.550Z,42.25
2019-01-21T11:35:56.541Z,46.50
2019-01-21T11:39:39.361Z,46.05
2019-01-21T11:42:56.580Z,47.80
2019-01-21T11:46:39.305Z,44.23
2019-01-21T11:50:00.589Z,44.13
2019-01-21T11:53:36.788Z,49.10
2019-01-21T11:56:33.427Z,46.58
2019-01-21T11:59:46.616Z,43.83
2019-01-21T12:03:33.051Z,52.93
2019-01-21T12:06:35.031Z,51.10
2019-01-21T12:09:42.242Z,52.43
2019-01-21T12:13:06.128Z,50.35
2019-01-21T12:16:40.075Z,50.17
2019-01-21T12:19:58.807Z,47.33
2019-01-21T12:23:16.470Z,54.58
2019-01-21T12:26:20.992Z,52.75
2019-01-21T12:29:42.735Z,55.40
2019-01-21T12:33:12.228Z,47.65
2019-01-21T12:36:06.997Z,50.63
2019-01-21T12:39:27.721Z,47.35
2019-01-21T12:43:08.566Z,69.55
2019-01-21T12:46:41.024Z,40.98
2019-01-21T12:50:13.689Z,48.90
2019-01-21T12:53:53.958Z,50.70
2019-01-21T12:57:43.228Z,51.20
2019-01-21T13:01:33.647Z,43.68
2019-01-21T13:04:55.885Z,41.95
2019-01-21T13:08:19.708Z,46.98
2019-01-21T13:11:37.936Z,41.75
2019-01-21T13:15:12.737Z,46.68
2019-01-21T13:18:29.751Z,47.13
2019-01-21T13:22:03.614Z,48.20
2019-01-21T13:25:42.661Z,50.90
2019-01-21T13:29:12.446Z,45.88
2019-01-21T13:32:44.960Z,39.65
2019-01-21T13:36:24.251Z,50.20
2019-01-21T13:39:52.627Z,43.17
2019-01-21T13:43:26.370Z,45.55
2019-01-21T13:47:21.134Z,42.70
2019-01-21T13:50:25.190Z,44.80
2019-01-21T13:53:52.690Z,42.90
2019-01-21T13:57:08.957Z,43.42
2019-01-21T14:00:32.361Z,48.73
2019-01-21T14:03:50.606Z,52.65
2019-01-21T14:07:20.241Z,44.18
2019-01-21T14:10:41.696Z,49.18
2019-01-21T14:13:52.497Z,56.20
2019-01-21T14:17:07.570Z,45.28
2019-01-21T14:20:29.791Z,47.85
2019-01-21T14:23:48.828Z,52.98
2019-01-21T14:27:16.943Z,49.42
2019-01-21T14:30:17.642Z,45.30
2019-01-21T14:38:05.175Z,46.05
2019-01-21T14:41:37.561Z,44.42
2019-01-21T14:45:12.261Z,52.95
2019-01-21T14:48:50.866Z,51.33
2019-01-21T14:52:29.251Z,52.50
2019-01-21T14:56:00.285Z,50.95
2019-01-21T14:59:21.562Z,41.30
2019-01-21T15:02:57.826Z,52.08
2019-01-21T15:06:08.691Z,55.20
2019-01-21T15:09:18.789Z,49.70
2019-01-21T15:12:52.102Z,52.48
2019-01-21T15:16:01.517Z,50.03
2019-01-21T15:19:17.148Z,47.17
2019-01-21T15:22:37.797Z,48.70
2019-01-21T15:25:55.250Z,46.90
2019-01-21T15:29:22.178Z,59.85
2019-01-21T15:32:41.730Z,50.65
2019-01-21T15:35:43.243Z,52.17
2019-01-21T15:39:12.286Z,54.13
2019-01-21T15:42:34.900Z,60.73
2019-01-21T15:46:11.862Z,53.50
2019-01-21T15:49:23.680Z,54.03
2019-01-21T15:52:41.948Z,51.05
2019-01-21T15:56:06.766Z,50.15
2019-01-21T15:59:32.546Z,63.52
2019-01-21T16:02:43.091Z,57.78
2019-01-21T16:06:09.497Z,53.48
2019-01-21T16:09:49.281Z,50.95
2019-01-21T16:13:12.307Z,45.45
2019-01-21T16:16:38.866Z,53.58
2019-01-21T16:19:34.997Z,52.62
2019-01-21T16:23:34.462Z,59.73
2019-01-21T16:26:49.998Z,51.15
2019-01-21T16:29:47.666Z,58.78
2019-01-21T16:33:36.618Z,60.12
2019-01-21T16:36:46.666Z,46.80
2019-01-21T16:40:19.653Z,58.38
2019-01-21T16:43:09.553Z,65.25
2019-01-21T16:46:00.094Z,57.93
2019-01-21T16:48:49.897Z,57.17
2019-01-21T16:51:40.118Z,70.30
2019-01-21T16:54:30.026Z,62.98
2019-01-21T16:57:20.190Z,64.50
2019-01-21T17:00:11.149Z,62.03
2019-01-21T17:03:00.986Z,59.03
2019-01-21T17:05:51.132Z,52.83
2019-01-21T17:08:44.119Z,62.17
2019-01-21T17:11:34.340Z,58.83
2019-01-21T17:14:24.487Z,56.20
2019-01-21T17:17:14.607Z,56.48
2019-01-21T17:20:05.421Z,49.20
2019-01-21T17:22:55.268Z,52.10
2019-01-21T17:25:45.660Z,53.17
2019-01-21T17:28:35.798Z,51.83
2019-01-21T17:31:25.870Z,44.50
2019-01-21T17:34:16.872Z,54.20
2019-01-21T17:37:08.049Z,46.60
2019-01-21T17:39:57.967Z,57.43
2019-01-21T17:42:57.139Z,51.15
2019-01-21T17:45:50.885Z,62.53
2019-01-21T17:48:44.044Z,61.35
2019-01-21T17:51:36.405Z,56.83
2019-01-21T17:54:26.902Z,51.18
2019-01-21T17:57:17.140Z,51.15
2019-01-21T18:00:09.723Z,57.83
2019-01-21T18:03:01.437Z,53.87
2019-01-21T18:05:54.919Z,53.98
2019-01-21T18:08:45.083Z,56.63
2019-01-21T18:11:37.769Z,60.08
2019-01-21T18:14:27.152Z,72.17
2019-01-21T18:17:17.342Z,60.88
2019-01-21T18:20:19.981Z,64.90
2019-01-21T18:23:10.630Z,59.23
2019-01-21T18:26:02.016Z,59.10
2019-01-21T18:28:57.165Z,56.98
2019-01-21T18:31:47.316Z,60.25
2019-01-21T18:34:38.634Z,65.78
2019-01-21T18:37:30.049Z,62.10
2019-01-21T18:40:21.475Z,61.10
2019-01-21T18:43:12.042Z,60.80
2019-01-21T18:46:02.625Z,64.17
2019-01-21T18:48:53.231Z,59.13
2019-01-21T18:51:46.807Z,56.23
2019-01-21T18:54:35.778Z,78.28
2019-01-21T18:57:27.129Z,53.73
2019-01-21T19:00:19.806Z,68.25
2019-01-21T19:03:10.108Z,54.60
2019-01-21T19:06:00.280Z,54.15
2019-01-21T19:08:50.452Z,58.10
2019-01-21T19:11:40.222Z,71.35
2019-01-21T19:14:33.310Z,74.35
2019-01-21T19:17:22.901Z,62.20
2019-01-21T19:20:13.061Z,60.98
2019-01-21T19:23:02.619Z,63.15
2019-01-21T19:25:52.761Z,77.05
2019-01-21T19:28:44.573Z,59.20
2019-01-21T19:31:34.101Z,94.50
2019-01-21T19:34:24.282Z,80.67
2019-01-21T19:37:14.192Z,57.58
2019-01-21T19:40:05.736Z,66.85
2019-01-21T19:43:03.927Z,66.35
2019-01-21T19:45:54.841Z,66.55
2019-01-21T19:48:45.446Z,60.08
2019-01-21T19:51:37.072Z,63.35
2019-01-21T19:54:42.129Z,53.35
2019-01-21T19:57:32.364Z,67.40
2019-01-21T20:00:31.055Z,74.03
2019-01-21T20:03:21.277Z,68.45
2019-01-21T20:06:11.691Z,44.23
2019-01-21T20:09:01.172Z,49.25
2019-01-21T20:11:52.389Z,74.67
2019-01-21T20:14:42.150Z,70.65
2019-01-21T20:17:32.159Z,56.80
2019-01-21T20:20:27.150Z,66.12
2019-01-21T20:23:17.199Z,59.38
2019-01-21T20:26:06.933Z,69.53
2019-01-21T20:28:56.744Z,68.25
2019-01-21T20:31:46.988Z,67.15
2019-01-21T20:34:37.843Z,58.65
2019-01-21T20:37:28.202Z,57.88
2019-01-21T20:40:20.362Z,66.53
2019-01-21T20:43:10.369Z,65.70
2019-01-21T20:46:00.289Z,100.42
2019-01-21T20:48:50.041Z,75.17
2019-01-21T20:51:39.781Z,67.85
2019-01-21T20:54:29.650Z,74.15
2019-01-21T20:57:20.409Z,75.85
2019-01-21T21:00:13.888Z,74.17
2019-01-21T21:03:05.271Z,77.40
2019-01-21T21:05:55.233Z,92.10
2019-01-21T21:08:45.151Z,82.92
2019-01-21T21:11:35.453Z,63.38
2019-01-21T21:14:25.691Z,80.83
2019-01-21T21:17:15.412Z,105.32
2019-01-21T21:20:07.883Z,73.87
2019-01-21T21:22:57.782Z,73.62
2019-01-21T21:25:47.382Z,73.00
2019-01-21T21:28:37.252Z,98.80
2019-01-21T21:31:26.951Z,71.47
2019-01-21T21:34:16.731Z,80.03
2019-01-21T21:37:06.794Z,72.10
2019-01-21T21:39:56.322Z,66.82
2019-01-21T21:42:46.320Z,67.37
2019-01-21T21:45:36.833Z,56.30
2019-01-21T21:48:31.686Z,83.07
2019-01-21T21:51:17.953Z,58.92
2019-01-21T21:54:08.241Z,80.92
2019-01-21T21:56:58.303Z,75.00
2019-01-21T21:59:48.371Z,77.20
2019-01-21T22:02:40.290Z,74.12
2019-01-21T22:05:30.664Z,55.73
2019-01-21T22:08:20.982Z,69.45
2019-01-21T22:11:11.531Z,79.42
2019-01-21T22:14:01.813Z,71.47
2019-01-21T22:16:51.690Z,74.67
2019-01-21T22:19:41.751Z,91.90
2019-01-21T22:22:34.861Z,103.27
2019-01-21T22:25:23.232Z,85.72
2019-01-21T22:28:14.211Z,65.25
2019-01-21T22:31:04.033Z,72.10
2019-01-21T22:33:57.171Z,79.55
2019-01-21T22:36:47.935Z,62.75
2019-01-21T22:39:38.029Z,60.90
2019-01-21T22:42:28.378Z,103.65
2019-01-21T22:45:19.138Z,71.95
2019-01-21T22:48:08.663Z,94.05
2019-01-21T22:50:59.601Z,74.25
2019-01-21T22:53:49.739Z,71.92
2019-01-21T22:56:39.872Z,70.80
2019-01-21T22:59:29.742Z,72.40
2019-01-21T23:02:19.843Z,91.82
2019-01-21T23:05:10.191Z,96.10
2019-01-21T23:08:00.400Z,98.42
2019-01-21T23:10:50.250Z,86.95
2019-01-21T23:13:40.171Z,111.60
2019-01-21T23:16:29.991Z,67.53
2019-01-21T23:19:19.931Z,55.63
2019-01-21T23:22:09.630Z,114.97
2019-01-21T23:24:59.732Z,88.62
2019-01-21T23:27:49.659Z,113.65
2019-01-21T23:30:39.729Z,95.75
2019-01-21T23:33:29.619Z,93.50
2019-01-21T23:36:22.119Z,108.92
2019-01-21T23:39:12.579Z,89.28
2019-01-21T23:42:02.670Z,69.22
2019-01-21T23:44:52.676Z,86.60
2019-01-21T23:47:42.682Z,109.35
2019-01-21T23:50:32.649Z,93.25
2019-01-21T23:53:22.801Z,70.92
2019-01-21T23:56:13.141Z,81.87
2019-01-21T23:59:03.383Z,92.20
